sensor_id;sensor_type;location;lat;lon;timestamp;pressure;altitude;pressure_sealevel;temperature;humidity
38558;BME280;24333;42.626;23.308;2023-07-28T00:47:08;69896.22;;;-148.95;56.22
38558;BME280;24333;42.626;23.308;2023-07-28T00:49:33;69892.06;;;-148.95;56.36
38558;BME280;24333;42.626;23.308;2023-07-28T00:51:59;69900.38;;;-148.95;55.77
38558;BME280;24333;42.626;23.308;2023-07-28T00:54:24;69898.28;;;-148.95;54.22
38558;BME280;24333;42.626;23.308;2023-07-28T00:56:50;69896.22;;;-148.95;52.66
38558;BME280;24333;42.626;23.308;2023-07-28T00:59:16;69890.00;;;-148.95;53.64
38558;BME280;24333;42.626;23.308;2023-07-28T01:01:41;69890.00;;;-148.95;54.14
38558;BME280;24333;42.626;23.308;2023-07-28T01:04:07;69892.06;;;-148.95;51.94
38558;BME280;24333;42.626;23.308;2023-07-28T01:06:42;69890.00;;;-148.95;51.75
38558;BME280;24333;42.626;23.308;2023-07-28T01:09:13;69900.38;;;-148.95;51.25
38558;BME280;24333;42.626;23.308;2023-07-28T01:12:09;69910.72;;;-148.95;52.27
38558;BME280;24333;42.626;23.308;2023-07-28T01:14:35;69910.72;;;-148.95;52.61
38558;BME280;24333;42.626;23.308;2023-07-28T01:17:00;69923.19;;;-148.95;51.03
38558;BME280;24333;42.626;23.308;2023-07-28T01:19:26;69919.03;;;-148.95;50.88
38558;BME280;24333;42.626;23.308;2023-07-28T01:27:40;69925.25;;;-148.95;53.64
38558;BME280;24333;42.626;23.308;2023-07-28T01:30:09;69925.25;;;-148.95;54.67
38558;BME280;24333;42.626;23.308;2023-07-28T01:32:35;69927.31;;;-148.95;56.12
38558;BME280;24333;42.626;23.308;2023-07-28T01:35:04;69925.25;;;-148.95;55.55
38558;BME280;24333;42.626;23.308;2023-07-28T01:37:29;69929.41;;;-148.95;56.62
38558;BME280;24333;42.626;23.308;2023-07-28T01:39:55;69931.47;;;-148.95;57.85
38558;BME280;24333;42.626;23.308;2023-07-28T01:42:22;69929.41;;;-148.95;59.50
38558;BME280;24333;42.626;23.308;2023-07-28T01:44:48;69925.25;;;-148.95;60.68
38558;BME280;24333;42.626;23.308;2023-07-28T01:47:13;69935.63;;;-148.95;61.08
38558;BME280;24333;42.626;23.308;2023-07-28T01:49:39;69937.69;;;-148.95;60.66
38558;BME280;24333;42.626;23.308;2023-07-28T01:52:04;69939.78;;;-148.95;59.55
38558;BME280;24333;42.626;23.308;2023-07-28T01:54:30;69935.63;;;-148.95;59.06
38558;BME280;24333;42.626;23.308;2023-07-28T01:56:55;69937.69;;;-148.95;60.51
38558;BME280;24333;42.626;23.308;2023-07-28T01:59:20;69943.94;;;-148.95;60.65
38558;BME280;24333;42.626;23.308;2023-07-28T02:01:47;69948.06;;;-148.95;62.00
38558;BME280;24333;42.626;23.308;2023-07-28T02:04:12;69952.22;;;-148.95;62.25
38558;BME280;24333;42.626;23.308;2023-07-28T02:06:38;69954.31;;;-148.95;63.87
38558;BME280;24333;42.626;23.308;2023-07-28T02:09:03;69952.22;;;-148.95;64.89
38558;BME280;24333;42.626;23.308;2023-07-28T02:11:29;69954.31;;;-148.95;65.34
38558;BME280;24333;42.626;23.308;2023-07-28T02:13:55;69958.44;;;-148.95;66.63
38558;BME280;24333;42.626;23.308;2023-07-28T02:16:20;69970.91;;;-148.95;66.38
38558;BME280;24333;42.626;23.308;2023-07-28T02:18:45;69962.59;;;-148.95;66.47
38558;BME280;24333;42.626;23.308;2023-07-28T02:21:11;69966.75;;;-148.95;66.38
38558;BME280;24333;42.626;23.308;2023-07-28T02:23:36;69966.75;;;-148.95;66.80
38558;BME280;24333;42.626;23.308;2023-07-28T02:26:01;69968.81;;;-148.95;68.20
38558;BME280;24333;42.626;23.308;2023-07-28T02:28:27;69985.41;;;-148.95;68.09
38558;BME280;24333;42.626;23.308;2023-07-28T02:30:52;69983.34;;;-148.95;67.99
38558;BME280;24333;42.626;23.308;2023-07-28T02:33:18;69975.03;;;-148.95;69.30
38558;BME280;24333;42.626;23.308;2023-07-28T02:35:43;69981.25;;;-148.95;68.67
38558;BME280;24333;42.626;23.308;2023-07-28T02:38:08;69989.56;;;-148.95;68.71
38558;BME280;24333;42.626;23.308;2023-07-28T02:40:34;69985.41;;;-148.95;70.00
38558;BME280;24333;42.626;23.308;2023-07-28T02:42:59;69989.56;;;-148.95;70.23
38558;BME280;24333;42.626;23.308;2023-07-28T12:07:31;68369.75;;;-148.95;30.83
38558;BME280;24333;42.626;23.308;2023-07-28T12:10:03;68363.53;;;-148.95;30.66
38558;BME280;24333;42.626;23.308;2023-07-28T12:12:39;68359.38;;;-148.95;30.36
38558;BME280;24333;42.626;23.308;2023-07-28T12:15:22;68359.38;;;-148.95;30.41
38558;BME280;24333;42.626;23.308;2023-07-28T12:18:08;68342.78;;;-148.95;30.65
38558;BME280;24333;42.626;23.308;2023-07-28T12:20:59;68338.66;;;-148.95;30.17
38558;BME280;24333;42.626;23.308;2023-07-28T12:23:25;68346.94;;;-148.95;30.09
38558;BME280;24333;42.626;23.308;2023-07-28T12:25:51;68349.03;;;-148.95;30.28
38558;BME280;24333;42.626;23.308;2023-07-28T12:28:18;68334.50;;;-148.95;30.71
38558;BME280;24333;42.626;23.308;2023-07-28T12:30:44;68326.22;;;-148.95;31.00
38558;BME280;24333;42.626;23.308;2023-07-28T12:33:10;68311.69;;;-148.95;31.21
38558;BME280;24333;42.626;23.308;2023-07-28T12:35:35;68305.47;;;-148.95;31.15
38558;BME280;24333;42.626;23.308;2023-07-28T12:38:02;68301.34;;;-148.95;31.39
38558;BME280;24333;42.626;23.308;2023-07-28T12:40:31;68286.81;;;-148.95;31.02
38558;BME280;24333;42.626;23.308;2023-07-28T12:42:58;68284.75;;;-148.95;31.61
38558;BME280;24333;42.626;23.308;2023-07-28T12:45:24;68284.75;;;-148.95;31.58
38558;BME280;24333;42.626;23.308;2023-07-28T12:47:52;68278.53;;;-148.95;31.45
38558;BME280;24333;42.626;23.308;2023-07-28T12:50:19;68268.16;;;-148.95;31.43
38558;BME280;24333;42.626;23.308;2023-07-28T12:52:46;68272.31;;;-148.95;31.19
38558;BME280;24333;42.626;23.308;2023-07-28T12:55:11;68270.22;;;-148.95;30.85
38558;BME280;24333;42.626;23.308;2023-07-28T12:57:37;68259.84;;;-148.95;30.87
38558;BME280;24333;42.626;23.308;2023-07-28T13:00:03;68268.16;;;-148.95;31.71
38558;BME280;24333;42.626;23.308;2023-07-28T13:02:40;68264.00;;;-148.95;31.31
38558;BME280;24333;42.626;23.308;2023-07-28T14:50:00;68185.22;;;-148.95;31.29
38558;BME280;24333;42.626;23.308;2023-07-28T14:52:26;68183.13;;;-148.95;31.32
38558;BME280;24333;42.626;23.308;2023-07-28T14:54:51;68174.84;;;-148.95;31.15
38558;BME280;24333;42.626;23.308;2023-07-28T14:57:17;68168.63;;;-148.95;31.09
38558;BME280;24333;42.626;23.308;2023-07-28T15:02:19;68179.00;;;-148.95;31.10
38558;BME280;24333;42.626;23.308;2023-07-28T15:09:55;68147.91;;;-148.95;31.49
38558;BME280;24333;42.626;23.308;2023-07-28T15:12:22;68156.19;;;-148.95;31.72
38558;BME280;24333;42.626;23.308;2023-07-28T15:19:51;68158.25;;;-148.95;31.41
38558;BME280;24333;42.626;23.308;2023-07-28T15:22:17;68174.84;;;-148.95;31.10
38558;BME280;24333;42.626;23.308;2023-07-28T15:24:42;68181.06;;;-148.95;31.41
38558;BME280;24333;42.626;23.308;2023-07-28T15:51:19;68191.44;;;-148.95;30.84
38558;BME280;24333;42.626;23.308;2023-07-28T16:01:30;68210.09;;;-148.95;30.82
38558;BME280;24333;42.626;23.308;2023-07-28T16:03:56;68226.69;;;-148.95;30.41
38558;BME280;24333;42.626;23.308;2023-07-28T16:06:22;68247.41;;;-148.95;30.31
38558;BME280;24333;42.626;23.308;2023-07-28T16:08:50;68257.78;;;-148.95;30.40
38558;BME280;24333;42.626;23.308;2023-07-28T16:13:49;68280.59;;;-148.95;30.06
38558;BME280;24333;42.626;23.308;2023-07-28T16:16:14;68288.88;;;-148.95;31.05
38558;BME280;24333;42.626;23.308;2023-07-28T16:18:40;68284.75;;;-148.95;31.43
38558;BME280;24333;42.626;23.308;2023-07-28T16:26:16;68320.00;;;-148.95;30.30
38558;BME280;24333;42.626;23.308;2023-07-28T16:28:42;68330.34;;;-148.95;29.89
38558;BME280;24333;42.626;23.308;2023-07-28T16:31:08;68342.78;;;-148.95;29.86
38558;BME280;24333;42.626;23.308;2023-07-28T16:33:33;68338.66;;;-148.95;30.05
38558;BME280;24333;42.626;23.308;2023-07-28T19:02:41;68848.78;;;-148.95;37.92
38558;BME280;24333;42.626;23.308;2023-07-28T19:05:07;68848.78;;;-148.95;38.20
38558;BME280;24333;42.626;23.308;2023-07-28T19:07:36;68848.78;;;-148.95;38.09
38558;BME280;24333;42.626;23.308;2023-07-28T19:10:03;68861.22;;;-148.95;38.01
38558;BME280;24333;42.626;23.308;2023-07-28T19:12:28;68865.38;;;-148.95;38.09
38558;BME280;24333;42.626;23.308;2023-07-28T19:14:54;68875.72;;;-148.95;37.86
38558;BME280;24333;42.626;23.308;2023-07-28T19:17:19;68873.66;;;-148.95;37.91
38558;BME280;24333;42.626;23.308;2023-07-28T19:19:46;68871.59;;;-148.95;37.77
38558;BME280;24333;42.626;23.308;2023-07-28T19:22:11;68873.66;;;-148.95;37.75
38558;BME280;24333;42.626;23.308;2023-07-28T19:24:38;68875.72;;;-148.95;37.86
38558;BME280;24333;42.626;23.308;2023-07-28T19:27:04;68867.44;;;-148.95;37.99
38558;BME280;24333;42.626;23.308;2023-07-28T19:29:30;68873.66;;;-148.95;38.09
38558;BME280;24333;42.626;23.308;2023-07-28T19:31:55;68875.72;;;-148.95;37.84
38558;BME280;24333;42.626;23.308;2023-07-28T19:34:20;68879.88;;;-148.95;37.91
38558;BME280;24333;42.626;23.308;2023-07-28T19:36:46;68881.97;;;-148.95;38.20
38558;BME280;24333;42.626;23.308;2023-07-28T19:39:11;68884.03;;;-148.95;38.09
38558;BME280;24333;42.626;23.308;2023-07-28T19:41:37;68884.03;;;-148.95;38.21
38558;BME280;24333;42.626;23.308;2023-07-28T19:44:02;68886.09;;;-148.95;38.27
38558;BME280;24333;42.626;23.308;2023-07-28T19:46:28;68898.53;;;-148.95;38.43
38558;BME280;24333;42.626;23.308;2023-07-28T19:48:53;68894.41;;;-148.95;38.24
38558;BME280;24333;42.626;23.308;2023-07-28T19:51:19;68896.47;;;-148.95;38.12
38558;BME280;24333;42.626;23.308;2023-07-28T19:53:45;68896.47;;;-148.95;38.32
38558;BME280;24333;42.626;23.308;2023-07-28T19:56:11;68892.31;;;-148.95;38.10
38558;BME280;24333;42.626;23.308;2023-07-28T19:58:36;68894.41;;;-148.95;38.27
38558;BME280;24333;42.626;23.308;2023-07-28T20:01:02;68902.69;;;-148.95;38.47
38558;BME280;24333;42.626;23.308;2023-07-28T20:03:27;68902.69;;;-148.95;38.57
38558;BME280;24333;42.626;23.308;2023-07-28T20:05:52;68904.75;;;-148.95;38.77
38558;BME280;24333;42.626;23.308;2023-07-28T20:08:18;68906.84;;;-148.95;39.14
38558;BME280;24333;42.626;23.308;2023-07-28T20:10:43;68915.13;;;-148.95;39.41
38558;BME280;24333;42.626;23.308;2023-07-28T20:13:09;68927.56;;;-148.95;39.74
38558;BME280;24333;42.626;23.308;2023-07-28T20:15:34;68919.28;;;-148.95;40.19
38558;BME280;24333;42.626;23.308;2023-07-28T20:17:59;68935.88;;;-148.95;40.38
38558;BME280;24333;42.626;23.308;2023-07-28T20:20:25;68946.25;;;-148.95;40.85
38558;BME280;24333;42.626;23.308;2023-07-28T20:22:50;68950.38;;;-148.95;40.92
38558;BME280;24333;42.626;23.308;2023-07-28T20:25:22;68950.38;;;-148.95;41.31
38558;BME280;24333;42.626;23.308;2023-07-28T20:27:49;68958.69;;;-148.95;41.28
38558;BME280;24333;42.626;23.308;2023-07-28T20:30:14;68960.75;;;-148.95;41.63
38558;BME280;24333;42.626;23.308;2023-07-28T20:32:42;68964.91;;;-148.95;41.76
38558;BME280;24333;42.626;23.308;2023-07-28T20:35:08;68960.75;;;-148.95;42.52
38558;BME280;24333;42.626;23.308;2023-07-28T20:37:33;68973.22;;;-148.95;42.66
38558;BME280;24333;42.626;23.308;2023-07-28T20:39:58;68989.78;;;-148.95;43.57
38558;BME280;24333;42.626;23.308;2023-07-28T20:42:24;68993.94;;;-148.95;43.88
38558;BME280;24333;42.626;23.308;2023-07-28T20:44:49;69000.16;;;-148.95;45.46
38558;BME280;24333;42.626;23.308;2023-07-28T20:47:15;68998.09;;;-148.95;45.60
38558;BME280;24333;42.626;23.308;2023-07-28T20:49:40;69016.75;;;-148.95;44.51
38558;BME280;24333;42.626;23.308;2023-07-28T20:52:06;69022.97;;;-148.95;45.76
38558;BME280;24333;42.626;23.308;2023-07-28T20:54:31;69033.34;;;-148.95;44.81
38558;BME280;24333;42.626;23.308;2023-07-28T20:56:57;69039.56;;;-148.95;45.14
38558;BME280;24333;42.626;23.308;2023-07-28T20:59:22;69045.78;;;-148.95;45.89
38558;BME280;24333;42.626;23.308;2023-07-28T21:01:48;69052.00;;;-148.95;45.56
38558;BME280;24333;42.626;23.308;2023-07-28T21:04:13;69052.00;;;-148.95;45.79
38558;BME280;24333;42.626;23.308;2023-07-28T21:06:38;69060.31;;;-148.95;46.88
38558;BME280;24333;42.626;23.308;2023-07-28T21:09:04;69066.53;;;-148.95;48.07
38558;BME280;24333;42.626;23.308;2023-07-28T21:11:29;69074.81;;;-148.95;47.12
38558;BME280;24333;42.626;23.308;2023-07-28T21:13:54;69078.97;;;-148.95;46.93
38558;BME280;24333;42.626;23.308;2023-07-28T21:16:20;69076.91;;;-148.95;46.48
38558;BME280;24333;42.626;23.308;2023-07-28T21:18:46;69081.06;;;-148.95;45.66
38558;BME280;24333;42.626;23.308;2023-07-28T21:21:11;69078.97;;;-148.95;45.51
38558;BME280;24333;42.626;23.308;2023-07-28T21:23:37;69072.75;;;-148.95;46.22
38558;BME280;24333;42.626;23.308;2023-07-28T21:26:03;69068.59;;;-148.95;46.04
38558;BME280;24333;42.626;23.308;2023-07-28T21:28:30;69068.59;;;-148.95;46.31
38558;BME280;24333;42.626;23.308;2023-07-28T21:30:56;69066.53;;;-148.95;46.80
38558;BME280;24333;42.626;23.308;2023-07-28T21:33:21;69068.59;;;-148.95;47.26
38558;BME280;24333;42.626;23.308;2023-07-28T21:35:47;69074.81;;;-148.95;47.51
38558;BME280;24333;42.626;23.308;2023-07-28T21:38:12;69070.69;;;-148.95;48.02
38558;BME280;24333;42.626;23.308;2023-07-28T21:40:38;69074.81;;;-148.95;46.55
38558;BME280;24333;42.626;23.308;2023-07-28T21:43:04;69074.81;;;-148.95;48.09
38558;BME280;24333;42.626;23.308;2023-07-28T21:45:30;69076.91;;;-148.95;47.86
38558;BME280;24333;42.626;23.308;2023-07-28T21:47:55;69081.06;;;-148.95;48.21
38558;BME280;24333;42.626;23.308;2023-07-28T21:50:21;69091.41;;;-148.95;49.40
38558;BME280;24333;42.626;23.308;2023-07-28T21:52:46;69099.72;;;-148.95;50.03
38558;BME280;24333;42.626;23.308;2023-07-28T21:55:13;69103.88;;;-148.95;50.00
38558;BME280;24333;42.626;23.308;2023-07-28T21:57:39;69110.09;;;-148.95;50.03
38558;BME280;24333;42.626;23.308;2023-07-28T22:00:09;69116.31;;;-148.95;50.61
38558;BME280;24333;42.626;23.308;2023-07-28T22:02:36;69126.69;;;-148.95;51.55
38558;BME280;24333;42.626;23.308;2023-07-28T22:05:04;69130.81;;;-148.95;51.83
38558;BME280;24333;42.626;23.308;2023-07-28T22:07:29;69130.81;;;-148.95;51.11
38558;BME280;24333;42.626;23.308;2023-07-28T22:09:54;69120.44;;;-148.95;51.58
38558;BME280;24333;42.626;23.308;2023-07-28T22:12:20;69116.31;;;-148.95;52.12
38558;BME280;24333;42.626;23.308;2023-07-28T22:14:46;69132.91;;;-148.95;51.96
38558;BME280;24333;42.626;23.308;2023-07-28T22:17:11;69143.28;;;-148.95;52.22
38558;BME280;24333;42.626;23.308;2023-07-28T22:19:36;69149.50;;;-148.95;51.92
38558;BME280;24333;42.626;23.308;2023-07-28T22:22:02;69147.41;;;-148.95;52.07
38558;BME280;24333;42.626;23.308;2023-07-28T22:24:27;69155.72;;;-148.95;52.31
38558;BME280;24333;42.626;23.308;2023-07-28T22:26:53;69151.56;;;-148.95;53.61
38558;BME280;24333;42.626;23.308;2023-07-28T22:29:18;69161.94;;;-148.95;55.27
38558;BME280;24333;42.626;23.308;2023-07-28T22:31:43;69172.31;;;-148.95;56.02
38558;BME280;24333;42.626;23.308;2023-07-28T22:34:09;69174.38;;;-148.95;56.33
38558;BME280;24333;42.626;23.308;2023-07-28T22:36:34;69184.75;;;-148.95;57.29
38558;BME280;24333;42.626;23.308;2023-07-28T22:39:00;69193.03;;;-148.95;56.75
38558;BME280;24333;42.626;23.308;2023-07-28T22:41:25;69197.19;;;-148.95;56.98
38558;BME280;24333;42.626;23.308;2023-07-28T22:43:51;69205.50;;;-148.95;58.03
38558;BME280;24333;42.626;23.308;2023-07-28T22:46:16;69205.50;;;-148.95;58.74
38558;BME280;24333;42.626;23.308;2023-07-28T22:48:41;69205.50;;;-148.95;59.93
38558;BME280;24333;42.626;23.308;2023-07-28T22:51:07;69209.63;;;-148.95;60.16
38558;BME280;24333;42.626;23.308;2023-07-28T22:53:32;69209.63;;;-148.95;61.40
38558;BME280;24333;42.626;23.308;2023-07-28T22:55:57;69207.56;;;-148.95;61.48
38558;BME280;24333;42.626;23.308;2023-07-28T22:58:23;69209.63;;;-148.95;62.23
38558;BME280;24333;42.626;23.308;2023-07-28T23:00:48;69217.94;;;-148.95;61.62
38558;BME280;24333;42.626;23.308;2023-07-28T23:03:14;69220.00;;;-148.95;60.79
38558;BME280;24333;42.626;23.308;2023-07-28T23:05:39;69222.09;;;-148.95;60.00
38558;BME280;24333;42.626;23.308;2023-07-28T23:08:05;69213.78;;;-148.95;60.04
38558;BME280;24333;42.626;23.308;2023-07-28T23:10:30;69205.50;;;-148.95;60.80
38558;BME280;24333;42.626;23.308;2023-07-28T23:12:56;69203.41;;;-148.95;60.54
38558;BME280;24333;42.626;23.308;2023-07-28T23:20:58;69193.03;;;-148.95;59.82
38558;BME280;24333;42.626;23.308;2023-07-28T23:23:24;69188.91;;;-148.95;60.38
38558;BME280;24333;42.626;23.308;2023-07-28T23:25:49;69188.91;;;-148.95;60.88
